Time;durP1;ratioP1;P1;durP2;ratioP2;P2;SDS_P1;SDS_P2;PMS_P1;PMS_P2;Temp;Humidity;BMP_temperature;BMP_pressure;BME280_temperature;BME280_humidity;BME280_pressure;Samples;Min_cycle;Max_cycle;Signal;HPM_P1;HPM_P2
2023/07/25 00:00:35;;;;;;;6.63;3.28;;;12.30;99.90;;;;;;5070694;28;20052;-63
2023/07/25 00:03:00;;;;;;;9.05;3.28;;;12.30;99.90;;;;;;5076338;28;20088;-62
2023/07/25 00:05:26;;;;;;;13.95;3.30;;;12.20;99.90;;;;;;5070194;28;20041;-62
2023/07/25 00:07:52;;;;;;;11.90;3.80;;;12.20;99.90;;;;;;5070329;28;20382;-63
2023/07/25 00:10:18;;;;;;;13.05;3.55;;;12.20;99.90;;;;;;5088960;28;20051;-62
2023/07/25 00:12:44;;;;;;;14.10;3.65;;;12.20;99.90;;;;;;5064772;28;20040;-61
2023/07/25 00:15:10;;;;;;;13.32;4.15;;;12.10;99.90;;;;;;5069590;28;20040;-60
2023/07/25 00:17:36;;;;;;;9.07;3.53;;;12.00;99.90;;;;;;5071485;28;20039;-63
2023/07/25 00:20:02;;;;;;;14.52;4.18;;;11.90;99.90;;;;;;5071052;28;20763;-62
2023/07/25 00:22:28;;;;;;;13.05;4.20;;;11.80;99.90;;;;;;5069447;28;20084;-62
2023/07/25 00:24:53;;;;;;;13.05;4.38;;;11.90;99.90;;;;;;5053831;28;20036;-64
2023/07/25 00:27:19;;;;;;;11.90;3.83;;;11.80;99.90;;;;;;5069981;28;20068;-63
2023/07/25 00:29:46;;;;;;;10.65;4.53;;;11.80;99.90;;;;;;5082189;28;20045;-63
2023/07/25 00:32:12;;;;;;;7.20;4.15;;;11.70;99.90;;;;;;5052444;28;20072;-62
2023/07/25 00:34:37;;;;;;;9.68;4.63;;;11.80;99.90;;;;;;5069784;28;20078;-64
2023/07/25 00:37:03;;;;;;;15.80;4.75;;;11.70;99.90;;;;;;5070360;28;20052;-63
2023/07/25 00:39:29;;;;;;;11.68;4.35;;;11.60;99.90;;;;;;5052914;28;20146;-63
2023/07/25 00:41:54;;;;;;;12.95;5.15;;;11.60;99.90;;;;;;5071000;28;20040;-63
2023/07/25 00:44:20;;;;;;;12.00;4.65;;;11.50;99.90;;;;;;5070667;28;20063;-62
2023/07/25 00:46:46;;;;;;;12.00;5.05;;;11.60;99.90;;;;;;5069298;28;20048;-62
2023/07/25 00:49:13;;;;;;;16.33;5.65;;;11.50;99.90;;;;;;5050850;28;20414;-62
2023/07/25 00:51:39;;;;;;;10.55;5.10;;;11.60;99.90;;;;;;5079597;28;20108;-63
2023/07/25 00:54:05;;;;;;;15.38;4.85;;;11.50;99.90;;;;;;5068408;28;20135;-62
2023/07/25 00:56:31;;;;;;;11.82;4.68;;;11.60;99.90;;;;;;5070746;28;20032;-63
2023/07/25 00:58:57;;;;;;;10.50;4.95;;;11.70;99.90;;;;;;5069257;28;20045;-62
2023/07/25 01:02:00;;;;;;;11.48;4.47;;;11.60;99.90;;;;;;5069699;28;20075;-63
2023/07/25 01:04:26;;;;;;;16.80;5.18;;;11.60;99.90;;;;;;5069976;28;20135;-62
2023/07/25 01:06:52;;;;;;;14.15;4.95;;;11.50;99.90;;;;;;5055367;28;20048;-62
2023/07/25 01:09:41;;;;;;;12.65;5.00;;;11.40;99.90;;;;;;5069414;28;20496;-62
2023/07/25 01:12:08;;;;;;;12.27;4.97;;;11.50;99.90;;;;;;5069813;28;20478;-62
2023/07/25 01:14:34;;;;;;;10.80;4.85;;;11.30;99.90;;;;;;5068381;28;20039;-62
2023/07/25 01:17:05;;;;;;;15.07;5.47;;;11.30;99.90;;;;;;5068818;28;20086;-62
2023/07/25 01:19:33;;;;;;;12.35;5.00;;;11.30;99.90;;;;;;5070149;28;20135;-63
2023/07/25 01:21:58;;;;;;;11.75;5.25;;;11.30;99.90;;;;;;5069267;28;20446;-62
2023/07/25 01:24:25;;;;;;;14.70;5.03;;;11.10;99.90;;;;;;5074587;28;20076;-62
2023/07/25 01:26:50;;;;;;;17.58;4.93;;;11.20;99.90;;;;;;5070650;28;20388;-63
2023/07/25 01:29:16;;;;;;;12.35;4.85;;;11.10;99.90;;;;;;5078093;28;20041;-63
2023/07/25 01:31:42;;;;;;;13.57;5.35;;;11.10;99.90;;;;;;5069529;28;20037;-63
2023/07/25 01:34:07;;;;;;;13.20;5.05;;;11.10;99.90;;;;;;5069622;28;20390;-63
2023/07/25 01:36:52;;;;;;;15.05;5.32;;;11.00;99.90;;;;;;5070253;28;20043;-63
2023/07/25 01:42:58;;;;;;;11.10;5.13;;;11.10;99.90;;;;;;5070593;28;20092;-62
2023/07/25 01:45:24;;;;;;;16.48;4.55;;;11.10;99.90;;;;;;5070201;28;20048;-62
2023/07/25 01:47:49;;;;;;;9.98;4.90;;;11.00;99.90;;;;;;5071518;28;20163;-63
2023/07/25 01:50:16;;;;;;;17.25;5.75;;;11.20;99.90;;;;;;5068894;28;20071;-62
2023/07/25 01:52:42;;;;;;;13.15;5.05;;;11.10;99.90;;;;;;5068479;28;20063;-63
2023/07/25 01:55:08;;;;;;;13.20;5.03;;;11.10;99.90;;;;;;5068587;28;20426;-62
2023/07/25 01:57:34;;;;;;;21.75;5.40;;;11.20;99.90;;;;;;5068935;28;20051;-63
2023/07/25 02:00:00;;;;;;;11.90;4.97;;;11.30;99.90;;;;;;5061348;28;20040;-62
2023/07/25 02:02:25;;;;;;;15.80;5.13;;;11.30;99.90;;;;;;5068743;28;20255;-63
2023/07/25 02:04:51;;;;;;;13.95;5.03;;;11.40;99.90;;;;;;5051794;28;20048;-62
2023/07/25 02:07:17;;;;;;;10.80;5.25;;;11.60;99.90;;;;;;5068428;28;20063;-62
2023/07/25 02:09:42;;;;;;;15.38;4.55;;;11.60;99.90;;;;;;5072475;28;20264;-63
2023/07/25 02:12:08;;;;;;;12.98;5.22;;;11.60;99.90;;;;;;5068649;28;20502;-61
2023/07/25 02:14:34;;;;;;;12.45;4.57;;;11.70;99.90;;;;;;5068621;28;20037;-63
2023/07/25 02:16:59;;;;;;;15.32;5.15;;;11.90;99.90;;;;;;5051977;28;20483;-62
2023/07/25 02:19:25;;;;;;;14.05;5.10;;;11.90;99.90;;;;;;5071177;28;20047;-64
2023/07/25 02:21:51;;;;;;;14.32;4.65;;;12.00;99.90;;;;;;5069538;28;20124;-64
2023/07/25 02:24:16;;;;;;;14.75;4.75;;;12.10;99.90;;;;;;5068446;28;20470;-62
2023/07/25 02:26:42;;;;;;;11.02;4.50;;;12.10;99.90;;;;;;5068362;28;20133;-63
2023/07/25 02:29:08;;;;;;;9.63;3.85;;;12.10;99.90;;;;;;5085310;28;20167;-62
2023/07/25 02:31:34;;;;;;;12.35;4.75;;;12.20;99.90;;;;;;5068620;28;20048;-64
2023/07/25 02:33:59;;;;;;;12.27;4.38;;;12.10;99.90;;;;;;5068016;28;20043;-63
2023/07/25 02:37:03;;;;;;;14.63;4.20;;;12.20;99.90;;;;;;5071354;28;20079;-63
2023/07/25 02:39:29;;;;;;;11.88;4.45;;;12.20;99.90;;;;;;5070082;28;20036;-63
2023/07/25 02:41:54;;;;;;;10.68;4.72;;;12.30;99.90;;;;;;5067735;28;20414;-63
2023/07/25 02:44:22;;;;;;;12.43;4.20;;;12.20;99.90;;;;;;5068470;28;20048;-63
2023/07/25 02:46:50;;;;;;;14.13;4.68;;;12.20;99.90;;;;;;5068644;28;20505;-62
2023/07/25 02:49:15;;;;;;;14.07;4.50;;;12.10;99.90;;;;;;5075358;28;20585;-62
2023/07/25 02:51:41;;;;;;;11.05;4.50;;;12.30;99.90;;;;;;5067927;28;20186;-62
2023/07/25 02:54:07;;;;;;;12.25;4.00;;;12.40;99.90;;;;;;5051471;28;20058;-62
2023/07/25 02:56:32;;;;;;;14.52;4.38;;;12.30;99.90;;;;;;5086439;28;20048;-62
2023/07/25 02:58:58;;;;;;;12.52;4.15;;;12.20;99.90;;;;;;5083381;28;20051;-62
2023/07/25 03:01:24;;;;;;;11.57;4.43;;;12.50;99.90;;;;;;5069076;28;20048;-62
2023/07/25 03:03:49;;;;;;;15.73;4.75;;;12.30;99.90;;;;;;5051694;28;20098;-62
2023/07/25 03:06:15;;;;;;;17.67;5.45;;;12.60;99.90;;;;;;5069138;28;20137;-64
2023/07/25 03:08:41;;;;;;;13.13;4.68;;;12.60;99.90;;;;;;5068930;28;20044;-62
2023/07/25 03:11:07;;;;;;;11.90;4.05;;;12.40;99.90;;;;;;5068710;28;20044;-63
2023/07/25 03:13:32;;;;;;;16.65;4.75;;;12.50;99.90;;;;;;5053010;28;20037;-63
2023/07/25 03:15:58;;;;;;;14.10;4.53;;;12.60;99.90;;;;;;5035006;28;20037;-63
2023/07/25 03:18:24;;;;;;;11.05;4.35;;;12.40;99.90;;;;;;5052821;28;20098;-63
2023/07/25 03:20:49;;;;;;;14.15;5.22;;;12.50;99.90;;;;;;5067928;28;20055;-63
2023/07/25 03:23:15;;;;;;;11.38;4.25;;;12.60;99.90;;;;;;5052555;28;20492;-63
2023/07/25 03:25:41;;;;;;;14.98;4.80;;;12.50;99.90;;;;;;5068121;28;20036;-63
2023/07/25 03:28:06;;;;;;;11.30;4.93;;;12.50;99.90;;;;;;5067782;28;20132;-63
2023/07/25 03:30:32;;;;;;;15.75;5.32;;;12.60;99.90;;;;;;5068259;28;20101;-63
2023/07/25 03:32:58;;;;;;;11.32;5.05;;;12.60;99.90;;;;;;5070442;28;20114;-63
2023/07/25 03:35:25;;;;;;;14.90;4.90;;;12.50;99.90;;;;;;5072717;28;20043;-62
2023/07/25 03:41:53;;;;;;;13.38;4.50;;;12.70;99.90;;;;;;5071981;28;20055;-63
2023/07/25 03:47:59;;;;;;;19.10;5.18;;;12.70;99.90;;;;;;5073736;28;20052;-63
2023/07/25 03:50:26;;;;;;;14.45;4.28;;;12.90;99.90;;;;;;5078371;28;20040;-62
2023/07/25 03:52:51;;;;;;;14.40;4.40;;;12.90;99.90;;;;;;5055456;28;20057;-62
2023/07/25 03:55:17;;;;;;;13.57;4.57;;;12.80;99.90;;;;;;5090542;28;20051;-63
2023/07/25 03:57:43;;;;;;;11.88;4.15;;;13.00;99.90;;;;;;5084936;28;20128;-62
2023/07/25 04:00:09;;;;;;;11.10;4.07;;;13.00;99.90;;;;;;5072717;28;20036;-63
2023/07/25 04:02:34;;;;;;;12.45;3.67;;;13.00;99.90;;;;;;5071430;28;20051;-62
2023/07/25 04:05:00;;;;;;;9.57;3.00;;;12.80;99.90;;;;;;5072123;28;20044;-63
2023/07/25 04:11:07;;;;;;;12.23;3.55;;;12.90;99.90;;;;;;5074445;28;20055;-62
2023/07/25 04:13:32;;;;;;;12.15;3.25;;;13.20;99.90;;;;;;5073947;28;20048;-63
2023/07/25 04:15:58;;;;;;;16.52;3.20;;;13.10;99.90;;;;;;5055513;28;20482;-62
2023/07/25 04:18:23;;;;;;;18.98;3.38;;;13.30;99.90;;;;;;5059856;28;20040;-63
2023/07/25 04:20:49;;;;;;;13.75;3.13;;;13.10;99.90;;;;;;5056154;28;20076;-63
2023/07/25 04:23:15;;;;;;;9.45;2.80;;;13.30;99.90;;;;;;5072693;28;20482;-62
2023/07/25 04:26:19;;;;;;;12.63;2.83;;;13.10;99.90;;;;;;5073045;28;20047;-62
2023/07/25 04:28:48;;;;;;;13.52;3.03;;;13.30;99.90;;;;;;5072223;28;20119;-62
2023/07/25 04:31:13;;;;;;;15.02;2.80;;;13.40;99.90;;;;;;5073867;28;20040;-62
2023/07/25 04:33:39;;;;;;;8.80;1.90;;;13.30;99.90;;;;;;5055413;28;20106;-62
2023/07/25 04:36:06;;;;;;;13.55;3.13;;;13.40;99.90;;;;;;5073579;28;20051;-64
2023/07/25 04:38:31;;;;;;;9.15;1.63;;;13.50;99.90;;;;;;5089649;28;20131;-62
2023/07/25 04:40:57;;;;;;;8.18;1.83;;;13.40;99.90;;;;;;5072176;28;20414;-63
2023/07/25 04:43:23;;;;;;;12.63;1.60;;;13.40;99.90;;;;;;5072055;28;20048;-62
2023/07/25 04:45:48;;;;;;;12.25;1.80;;;13.40;99.90;;;;;;5073028;28;20111;-62
2023/07/25 04:48:14;;;;;;;12.57;2.00;;;13.30;99.90;;;;;;5071573;28;20045;-64
2023/07/25 04:50:40;;;;;;;9.48;1.88;;;13.30;99.90;;;;;;5071658;28;20033;-62
2023/07/25 04:53:06;;;;;;;11.40;1.90;;;13.40;99.90;;;;;;5071545;28;20052;-65
2023/07/25 04:55:31;;;;;;;14.82;2.22;;;13.30;99.90;;;;;;5072386;28;20094;-63
2023/07/25 04:57:57;;;;;;;14.70;2.25;;;13.10;99.90;;;;;;5055059;28;20083;-65
2023/07/25 05:00:22;;;;;;;15.93;2.33;;;13.20;99.90;;;;;;5071568;28;20039;-63
2023/07/25 05:02:48;;;;;;;9.73;1.77;;;13.20;99.90;;;;;;5054566;28;20454;-63
2023/07/25 05:05:14;;;;;;;11.18;2.47;;;13.10;99.90;;;;;;5055057;28;20104;-63
2023/07/25 05:07:40;;;;;;;8.63;1.60;;;12.90;99.90;;;;;;5054191;28;20076;-62
2023/07/25 05:10:06;;;;;;;16.45;2.33;;;12.90;99.90;;;;;;5072144;28;20048;-63
2023/07/25 05:12:32;;;;;;;11.32;2.17;;;12.90;99.90;;;;;;5072344;28;20029;-62
2023/07/25 05:14:57;;;;;;;13.77;2.30;;;13.00;99.90;;;;;;5071572;28;20040;-62
2023/07/25 05:17:23;;;;;;;9.95;2.22;;;13.10;99.90;;;;;;5070705;28;20040;-62
2023/07/25 05:19:49;;;;;;;9.18;2.00;;;13.00;99.90;;;;;;5074396;28;20048;-62
2023/07/25 05:22:14;;;;;;;9.63;1.50;;;13.00;99.90;;;;;;5079061;28;20039;-62
2023/07/25 05:24:40;;;;;;;7.72;1.65;;;13.20;99.90;;;;;;5071408;28;20043;-63
2023/07/25 05:27:06;;;;;;;7.75;1.50;;;13.40;99.90;;;;;;5073437;28;20044;-62
2023/07/25 05:29:33;;;;;;;7.90;1.50;;;13.40;99.90;;;;;;5054797;28;20060;-63
2023/07/25 05:31:59;;;;;;;12.93;1.88;;;13.70;99.90;;;;;;5072710;28;20397;-62
2023/07/25 05:34:24;;;;;;;11.35;1.80;;;13.80;99.90;;;;;;5070858;28;20116;-62
2023/07/25 05:36:50;;;;;;;10.23;1.52;;;13.80;99.90;;;;;;5070478;28;20050;-63
2023/07/25 05:39:16;;;;;;;12.38;1.52;;;13.70;99.90;;;;;;5074532;28;20136;-63
2023/07/25 05:41:42;;;;;;;7.38;1.58;;;14.20;99.90;;;;;;5071949;28;20128;-62
2023/07/25 05:44:09;;;;;;;8.65;1.15;;;14.40;99.90;;;;;;5071965;28;20132;-63
2023/07/25 05:46:34;;;;;;;11.75;1.40;;;14.80;99.90;;;;;;5072391;28;20052;-62
2023/07/25 05:52:22;;;;;;;9.35;0.90;;;15.60;99.90;;;;;;5070052;28;20060;-62
2023/07/25 05:54:52;;;;;;;8.07;0.73;;;15.80;99.90;;;;;;5086838;28;20052;-62
2023/07/25 05:57:18;;;;;;;9.75;0.77;;;15.90;99.90;;;;;;5076027;28;20376;-62
2023/07/25 05:59:44;;;;;;;8.05;0.88;;;15.70;99.90;;;;;;5054615;28;20044;-62
2023/07/25 06:06:10;;;;;;;10.57;1.45;;;15.50;99.90;;;;;;5070654;28;20480;-64
2023/07/25 06:12:17;;;;;;;8.00;1.23;;;15.40;99.90;;;;;;5070954;28;20111;-62
2023/07/25 06:14:43;;;;;;;8.10;0.80;;;15.50;99.90;;;;;;5069227;28;20044;-63
2023/07/25 06:20:50;;;;;;;6.15;0.70;;;16.00;99.90;;;;;;5072373;28;20031;-64
2023/07/25 06:26:57;;;;;;;8.43;0.70;;;16.70;99.90;;;;;;5072324;28;20027;-63
2023/07/25 06:29:22;;;;;;;8.35;1.17;;;17.00;99.90;;;;;;5071403;28;20036;-64
2023/07/25 06:31:48;;;;;;;3.72;0.50;;;17.20;99.90;;;;;;5070683;28;20036;-63
2023/07/25 06:34:13;;;;;;;6.85;0.68;;;17.40;99.90;;;;;;5055503;28;20041;-63
2023/07/25 06:36:39;;;;;;;8.27;0.70;;;17.40;99.90;;;;;;5070563;28;20124;-63
2023/07/25 06:39:05;;;;;;;6.40;0.75;;;17.30;99.90;;;;;;5070244;28;20040;-62
2023/07/25 06:41:31;;;;;;;7.57;0.73;;;17.30;99.90;;;;;;5077989;28;20040;-64
2023/07/25 06:43:56;;;;;;;7.18;0.60;;;17.50;99.90;;;;;;5069727;28;20060;-63
2023/07/25 06:46:24;;;;;;;5.70;0.50;;;17.40;99.90;;;;;;5063289;28;20036;-63
2023/07/25 06:48:53;;;;;;;6.55;0.63;;;17.30;99.90;;;;;;5054312;28;20048;-63
2023/07/25 06:51:20;;;;;;;6.15;0.50;;;17.50;99.90;;;;;;5055518;28;20067;-62
2023/07/25 06:53:46;;;;;;;8.85;0.60;;;17.60;99.90;;;;;;5075621;28;20105;-65
2023/07/25 06:56:11;;;;;;;4.32;0.45;;;17.70;99.90;;;;;;5072664;28;20032;-63
2023/07/25 06:58:37;;;;;;;5.65;0.40;;;17.60;99.90;;;;;;5070665;28;20052;-64
2023/07/25 07:01:03;;;;;;;5.20;0.40;;;17.60;99.90;;;;;;5055086;28;20301;-63
2023/07/25 07:03:30;;;;;;;5.32;0.20;;;17.80;99.90;;;;;;5057465;28;20372;-62
2023/07/25 07:05:56;;;;;;;4.20;0.40;;;17.80;99.90;;;;;;5070007;28;20058;-62
2023/07/25 07:08:22;;;;;;;4.65;0.50;;;18.30;99.90;;;;;;5067605;28;20040;-64
2023/07/25 07:10:53;;;;;;;5.35;0.50;;;18.10;99.90;;;;;;5056205;28;20569;-64
2023/07/25 07:13:19;;;;;;;3.10;0.30;;;18.10;97.40;;;;;;5072743;28;20728;-63
2023/07/25 07:15:48;;;;;;;7.00;0.50;;;18.30;64.80;;;;;;5078350;28;20493;-63
2023/07/25 07:18:14;;;;;;;5.55;0.40;;;18.30;83.20;;;;;;5051788;28;20549;-64
2023/07/25 07:20:48;;;;;;;3.33;0.20;;;18.20;92.10;;;;;;5068027;28;20048;-63
2023/07/25 07:23:13;;;;;;;7.22;0.40;;;18.00;76.80;;;;;;5072962;28;20044;-63
2023/07/25 07:25:41;;;;;;;4.15;0.20;;;17.90;54.40;;;;;;5069597;28;20040;-63
2023/07/25 07:28:06;;;;;;;4.95;0.50;;;18.20;37.00;;;;;;5087850;28;20119;-63
2023/07/25 07:30:32;;;;;;;2.42;0.30;;;18.20;48.30;;;;;;5087194;28;20103;-63
2023/07/25 07:32:58;;;;;;;4.32;0.30;;;18.40;27.40;;;;;;5075789;28;20048;-63
2023/07/25 07:35:24;;;;;;;2.28;0.20;;;18.10;11.60;;;;;;5044867;28;20037;-65
2023/07/25 07:37:50;;;;;;;3.10;0.20;;;18.40;18.80;;;;;;5050421;28;20131;-64
2023/07/25 07:40:15;;;;;;;3.50;0.30;;;18.60;24.30;;;;;;5050704;28;20125;-63
2023/07/25 07:42:41;;;;;;;4.25;0.30;;;18.80;17.60;;;;;;5057490;28;20083;-64
2023/07/25 07:45:07;;;;;;;2.55;0.20;;;18.90;7.50;;;;;;5051745;28;20498;-64
2023/07/25 07:47:33;;;;;;;3.15;0.30;;;18.60;1.00;;;;;;5049818;28;20049;-63
2023/07/25 07:49:59;;;;;;;2.42;0.40;;;18.30;6.40;;;;;;5050629;28;20071;-63
2023/07/25 07:52:25;;;;;;;6.05;0.35;;;18.40;26.00;;;;;;5043332;28;20044;-64
2023/07/25 07:54:51;;;;;;;4.43;0.30;;;18.60;21.90;;;;;;5069948;28;20770;-64
2023/07/25 07:57:18;;;;;;;4.22;0.40;;;18.80;14.40;;;;;;5069115;28;20108;-64
2023/07/25 07:59:44;;;;;;;3.30;0.30;;;18.80;11.90;;;;;;5062977;28;20056;-63
2023/07/25 08:02:09;;;;;;;3.22;0.30;;;19.20;10.60;;;;;;5050442;28;20032;-62
2023/07/25 08:04:36;;;;;;;5.47;0.32;;;18.90;10.00;;;;;;5069081;28;20073;-63
2023/07/25 08:07:02;;;;;;;4.70;0.30;;;18.50;22.20;;;;;;5059106;28;20259;-63
2023/07/25 08:09:27;;;;;;;4.68;0.40;;;18.20;37.10;;;;;;5049827;28;20094;-62
2023/07/25 08:11:53;;;;;;;6.00;0.40;;;17.90;47.60;;;;;;5049628;28;20045;-62
2023/07/25 08:14:19;;;;;;;8.98;0.50;;;17.90;65.30;;;;;;5033341;28;20127;-63
2023/07/25 08:16:44;;;;;;;5.68;0.40;;;18.30;79.40;;;;;;5050029;28;20215;-63
2023/07/25 08:19:10;;;;;;;5.07;0.30;;;18.70;80.40;;;;;;5034854;28;20036;-63
2023/07/25 08:21:36;;;;;;;5.05;0.40;;;18.50;43.20;;;;;;5037030;28;20842;-62
2023/07/25 08:24:01;;;;;;;6.00;0.45;;;18.30;35.40;;;;;;5053385;28;20626;-62
2023/07/25 08:26:27;;;;;;;4.75;0.40;;;18.10;33.90;;;;;;5072833;28;20422;-63
2023/07/25 08:28:52;;;;;;;4.07;0.32;;;18.00;44.20;;;;;;5055795;28;20048;-63
2023/07/25 08:31:18;;;;;;;4.70;0.30;;;18.10;46.20;;;;;;5020250;28;20338;-63
2023/07/25 08:33:44;;;;;;;4.22;0.30;;;17.70;20.10;;;;;;5053287;28;20102;-62
2023/07/25 08:36:10;;;;;;;4.05;0.30;;;17.60;30.80;;;;;;5069990;28;20611;-63
2023/07/25 08:38:36;;;;;;;3.75;0.28;;;17.80;45.40;;;;;;5072193;28;20055;-64
2023/07/25 08:41:12;;;;;;;6.45;0.30;;;17.70;35.20;;;;;;5055000;28;20123;-64
2023/07/25 08:43:40;;;;;;;4.40;0.20;;;17.60;24.00;;;;;;5053999;28;20056;-64
2023/07/25 08:46:08;;;;;;;5.00;0.20;;;18.10;36.30;;;;;;5072433;28;20052;-63
2023/07/25 08:48:39;;;;;;;3.53;0.20;;;18.80;17.90;;;;;;5072455;28;20047;-63
2023/07/25 08:51:16;;;;;;;3.90;0.20;;;19.20;1.00;;;;;;5088998;28;20127;-64
2023/07/25 08:53:56;;;;;;;3.17;0.25;;;18.90;1.00;;;;;;5082702;28;20112;-63
2023/07/25 08:56:23;;;;;;;3.50;0.20;;;18.30;1.00;;;;;;5053249;28;20426;-63
2023/07/25 08:58:50;;;;;;;3.83;0.30;;;18.80;3.80;;;;;;5052956;28;20056;-64
2023/07/25 09:01:19;;;;;;;6.70;0.35;;;19.20;1.00;;;;;;5052953;28;20354;-65
2023/07/25 09:03:47;;;;;;;3.08;0.20;;;19.60;1.00;;;;;;5052533;28;20068;-64
2023/07/25 09:06:13;;;;;;;5.60;0.30;;;19.50;1.00;;;;;;5071469;28;20544;-63
2023/07/25 09:08:39;;;;;;;3.58;0.20;;;19.20;1.00;;;;;;5055332;28;20557;-64
2023/07/25 09:11:08;;;;;;;4.40;0.30;;;19.00;1.00;;;;;;5071372;28;20048;-63
2023/07/25 09:13:34;;;;;;;5.15;0.30;;;19.60;1.00;;;;;;5069129;28;20051;-63
2023/07/25 09:16:00;;;;;;;1.75;0.20;;;20.00;1.00;;;;;;5052886;28;20376;-64
2023/07/25 09:18:26;;;;;;;3.88;0.30;;;20.30;1.00;;;;;;5052784;28;20074;-64
2023/07/25 09:20:52;;;;;;;3.90;0.20;;;19.80;1.00;;;;;;5052809;28;20043;-63
2023/07/25 09:23:21;;;;;;;2.60;0.20;;;19.10;1.00;;;;;;5052361;28;20076;-63
2023/07/25 09:25:48;;;;;;;4.55;0.38;;;19.60;1.00;;;;;;5052372;28;20040;-64
2023/07/25 09:28:13;;;;;;;5.00;0.30;;;19.40;1.00;;;;;;5051772;28;20075;-64
2023/07/25 09:30:47;;;;;;;4.80;0.30;;;19.40;1.00;;;;;;5051596;28;20123;-65
2023/07/25 09:33:27;;;;;;;2.15;0.30;;;19.60;1.00;;;;;;5052422;28;20410;-64
2023/07/25 09:35:53;;;;;;;5.65;0.25;;;19.70;1.00;;;;;;5035695;28;20037;-65
2023/07/25 09:38:19;;;;;;;5.88;0.30;;;19.80;1.00;;;;;;5052113;28;20544;-64
2023/07/25 09:40:46;;;;;;;2.35;0.20;;;20.20;1.00;;;;;;5051778;28;20052;-64
2023/07/25 09:43:26;;;;;;;2.53;0.25;;;20.70;1.00;;;;;;5035831;28;20051;-65
2023/07/25 09:45:54;;;;;;;3.13;0.32;;;20.50;1.00;;;;;;5035637;28;20124;-63
2023/07/25 09:48:20;;;;;;;3.47;0.20;;;20.50;1.00;;;;;;5070931;28;20054;-62
2023/07/25 09:50:47;;;;;;;1.95;0.20;;;20.30;1.00;;;;;;5070829;28;20545;-63
2023/07/25 09:53:17;;;;;;;3.22;0.30;;;20.60;1.00;;;;;;5052275;28;20252;-64
2023/07/25 09:55:45;;;;;;;4.18;0.30;;;19.70;1.00;;;;;;5070994;28;20681;-66
2023/07/25 09:58:12;;;;;;;6.25;0.40;;;19.30;1.00;;;;;;5071335;28;20918;-64
2023/07/25 10:00:38;;;;;;;2.88;0.20;;;18.90;1.00;;;;;;5071462;28;20603;-64
2023/07/25 10:03:07;;;;;;;3.50;0.30;;;19.20;1.00;;;;;;5055952;28;20491;-65
2023/07/25 10:05:34;;;;;;;3.88;0.30;;;19.30;1.00;;;;;;5069773;28;20036;-64
2023/07/25 10:08:00;;;;;;;4.55;0.30;;;19.40;1.00;;;;;;5070653;28;20044;-63
2023/07/25 10:10:27;;;;;;;4.45;0.30;;;19.10;1.00;;;;;;5058342;28;20045;-64
2023/07/25 10:12:53;;;;;;;3.60;0.30;;;18.60;1.00;;;;;;5054663;28;20047;-64
2023/07/25 10:15:19;;;;;;;4.28;0.30;;;18.80;6.30;;;;;;5034916;28;20040;-64
2023/07/25 10:17:46;;;;;;;4.45;0.50;;;18.70;2.00;;;;;;5051833;28;20091;-63
2023/07/25 10:20:20;;;;;;;4.10;0.30;;;18.70;10.10;;;;;;5070686;28;20059;-64
2023/07/25 10:22:46;;;;;;;4.32;0.40;;;18.50;1.00;;;;;;5069266;28;20117;-65
2023/07/25 10:25:27;;;;;;;3.60;0.28;;;18.30;1.00;;;;;;5087993;28;20036;-63
2023/07/25 10:27:57;;;;;;;5.25;0.30;;;18.50;1.00;;;;;;5087166;28;20054;-64
2023/07/25 10:30:28;;;;;;;2.92;0.30;;;18.50;1.00;;;;;;5060382;28;20086;-65
2023/07/25 10:32:58;;;;;;;2.50;0.20;;;18.80;1.00;;;;;;5053224;28;20119;-65
2023/07/25 10:35:49;;;;;;;4.70;0.30;;;18.70;1.00;;;;;;5051427;28;20052;-65
2023/07/25 10:38:23;;;;;;;3.42;0.35;;;18.40;1.00;;;;;;5051243;28;21193;-63
2023/07/25 10:41:00;;;;;;;5.38;0.50;;;18.50;1.00;;;;;;5059788;28;20438;-64
2023/07/25 10:43:52;;;;;;;2.65;0.25;;;18.50;1.00;;;;;;5070492;28;20170;-64
2023/07/25 10:46:19;;;;;;;3.10;0.30;;;18.70;1.00;;;;;;5056572;28;20056;-64
2023/07/25 10:48:58;;;;;;;4.43;0.20;;;18.70;1.00;;;;;;5069842;28;20506;-63
2023/07/25 10:51:48;;;;;;;4.90;0.30;;;18.50;5.70;;;;;;5086261;28;20134;-63
2023/07/25 10:54:17;;;;;;;2.60;0.30;;;18.90;1.00;;;;;;5052177;28;20045;-63
2023/07/25 10:57:17;;;;;;;5.72;0.30;;;19.00;1.00;;;;;;5051753;28;20042;-65
2023/07/25 11:00:01;;;;;;;3.75;0.30;;;18.90;1.00;;;;;;5061567;28;20498;-65
2023/07/25 11:02:44;;;;;;;3.38;0.28;;;19.40;1.00;;;;;;5070275;28;20065;-64
2023/07/25 11:05:13;;;;;;;3.20;0.28;;;19.30;1.00;;;;;;5070236;28;20076;-64
2023/07/25 11:07:50;;;;;;;3.78;0.25;;;19.60;1.00;;;;;;5035716;28;20040;-65
2023/07/25 11:10:42;;;;;;;4.97;0.30;;;19.40;1.00;;;;;;5053160;28;20046;-64
2023/07/25 11:13:08;;;;;;;4.68;0.45;;;19.30;1.00;;;;;;5067432;28;20504;-64
2023/07/25 11:15:35;;;;;;;4.13;0.30;;;18.80;1.00;;;;;;5069548;28;20044;-64
2023/07/25 11:18:06;;;;;;;2.90;0.30;;;18.90;1.00;;;;;;5050479;28;20212;-63
2023/07/25 11:20:32;;;;;;;1.77;0.30;;;18.90;1.00;;;;;;5069944;28;20075;-64
2023/07/25 11:22:58;;;;;;;2.10;0.20;;;18.60;1.00;;;;;;5086928;28;20094;-64
2023/07/25 11:25:24;;;;;;;4.97;0.40;;;18.70;1.00;;;;;;5086277;28;20078;-64
2023/07/25 11:27:51;;;;;;;2.67;0.20;;;18.60;1.00;;;;;;5052073;28;20048;-63
2023/07/25 11:30:20;;;;;;;2.35;0.20;;;18.70;1.00;;;;;;5042389;28;20198;-63
2023/07/25 11:32:48;;;;;;;2.55;0.20;;;18.80;1.00;;;;;;5053272;28;20242;-64
2023/07/25 11:35:17;;;;;;;5.63;0.20;;;19.40;1.00;;;;;;5052060;28;20047;-64
2023/07/25 11:37:49;;;;;;;3.65;0.28;;;19.30;1.00;;;;;;5083874;28;20139;-64
2023/07/25 11:40:21;;;;;;;4.13;0.50;;;19.70;1.00;;;;;;5050278;28;20339;-64
2023/07/25 11:42:49;;;;;;;2.45;0.20;;;20.00;1.00;;;;;;5049871;28;20282;-63
2023/07/25 11:45:16;;;;;;;3.17;0.20;;;20.40;1.00;;;;;;5033737;28;20587;-63
2023/07/25 11:47:46;;;;;;;4.78;0.30;;;21.00;1.00;;;;;;5067579;28;20048;-64
2023/07/25 11:50:12;;;;;;;1.73;0.20;;;21.00;1.00;;;;;;5051924;28;20036;-63
2023/07/25 11:52:41;;;;;;;2.28;0.28;;;21.00;1.00;;;;;;5067891;28;20056;-63
2023/07/25 11:55:08;;;;;;;2.75;0.20;;;21.20;1.00;;;;;;5056922;28;20123;-63
2023/07/25 11:57:36;;;;;;;3.88;0.32;;;20.90;1.00;;;;;;5054764;28;20642;-65
2023/07/25 12:00:03;;;;;;;1.52;0.20;;;20.70;1.00;;;;;;5054808;28;20105;-65
2023/07/25 12:02:39;;;;;;;3.85;0.30;;;20.10;1.00;;;;;;5053918;28;20048;-63
2023/07/25 12:05:09;;;;;;;4.65;0.30;;;20.20;1.00;;;;;;5054124;28;20124;-63
2023/07/25 12:07:48;;;;;;;3.63;0.20;;;20.40;1.00;;;;;;5053955;28;20462;-65
2023/07/25 12:10:24;;;;;;;6.55;0.30;;;20.30;1.00;;;;;;5061831;28;20110;-63
2023/07/25 12:12:49;;;;;;;2.50;0.20;;;19.80;1.00;;;;;;5074297;28;20393;-64
2023/07/25 12:15:15;;;;;;;3.35;0.40;;;19.90;1.00;;;;;;5062884;28;20318;-64
2023/07/25 12:17:44;;;;;;;4.53;0.30;;;20.30;1.00;;;;;;5053640;28;20230;-62
2023/07/25 12:20:18;;;;;;;1.42;0.20;;;20.50;1.00;;;;;;5054469;28;20055;-64
2023/07/25 12:22:45;;;;;;;3.40;0.22;;;20.30;1.00;;;;;;5056130;28;20044;-64
2023/07/25 12:25:18;;;;;;;2.50;0.30;;;20.70;1.00;;;;;;5072498;28;20583;-64
2023/07/25 12:27:48;;;;;;;2.50;0.20;;;21.00;1.00;;;;;;5086709;28;20138;-64
2023/07/25 12:30:15;;;;;;;3.83;0.30;;;21.30;1.00;;;;;;5074477;28;20067;-64
2023/07/25 12:32:40;;;;;;;3.92;0.30;;;21.20;1.00;;;;;;5089382;28;20052;-63
2023/07/25 12:35:08;;;;;;;0.77;0.20;;;21.40;1.00;;;;;;5061485;28;20376;-63
2023/07/25 12:37:34;;;;;;;2.17;0.20;;;21.50;1.00;;;;;;5053416;28;20209;-63
2023/07/25 12:40:00;;;;;;;1.27;0.40;;;21.40;1.00;;;;;;5036496;28;20048;-63
2023/07/25 12:42:25;;;;;;;67.53;5.10;;;21.30;1.00;;;;;;5053425;28;20048;-63
2023/07/25 12:44:52;;;;;;;1.67;0.20;;;21.10;1.00;;;;;;5053789;28;20040;-64
2023/07/25 12:47:18;;;;;;;1.73;0.20;;;21.00;1.00;;;;;;5036359;28;20054;-65
2023/07/25 12:49:44;;;;;;;2.08;0.20;;;21.20;1.00;;;;;;5052797;28;20446;-65
2023/07/25 12:52:09;;;;;;;2.53;0.30;;;21.50;1.00;;;;;;5052657;28;20315;-64
2023/07/25 12:54:36;;;;;;;3.58;0.20;;;21.00;1.00;;;;;;5052815;28;20048;-65
2023/07/25 12:57:02;;;;;;;2.05;0.20;;;21.40;1.00;;;;;;5053059;28;20049;-64
2023/07/25 12:59:27;;;;;;;3.58;0.20;;;21.90;1.00;;;;;;5059353;28;20712;-63
2023/07/25 13:01:53;;;;;;;1.38;0.20;;;21.60;1.00;;;;;;5054673;28;20050;-65
2023/07/25 13:04:19;;;;;;;2.33;0.20;;;21.40;1.00;;;;;;5033761;28;20059;-65
2023/07/25 13:06:44;;;;;;;3.10;0.20;;;20.90;1.00;;;;;;5039144;28;20131;-64
2023/07/25 13:09:10;;;;;;;3.30;0.20;;;20.50;1.00;;;;;;5053280;28;20044;-64
2023/07/25 13:11:36;;;;;;;1.63;0.20;;;20.70;1.00;;;;;;5036215;28;20094;-63
2023/07/25 13:14:02;;;;;;;2.05;0.20;;;20.90;1.00;;;;;;5055784;28;20498;-65
2023/07/25 13:16:28;;;;;;;2.03;0.22;;;20.80;1.00;;;;;;5037232;28;20041;-64
2023/07/25 13:18:54;;;;;;;2.35;0.15;;;20.40;1.00;;;;;;5056284;28;21037;-63
2023/07/25 13:21:20;;;;;;;3.63;0.30;;;20.30;1.00;;;;;;5042217;28;20058;-67